EGDR

RNAS Culdrose

Airport
ICAO code
EGDR
Summary
ICAO Region
EUR
ICAO Territory
Location

, England

Serving
Culdrose
Elevation
267 ft
Coordinates
50° 5' 10" N , 5° 15' 21" W
Metar
EGDR 240450Z AUTO 24007KT 9999 // FEW051/// SCT099/// 05/04 Q0992

Runways

Designator Length Width Surface Rops
7/25 1028 46 ASP No/No
18/36 1051 46 ASP No/No
12/30 1831 46 ASP No/No

Airport map

Aerial View

SKYbrary Partners:

Safety knowledge contributed by: